createdAt,value
2022-07-26T00:01:43.547Z,101058.16
2022-07-26T00:06:46.497Z,101018.53
2022-07-26T00:11:50.521Z,101054.28
2022-07-26T00:16:53.760Z,101045.91
2022-07-26T00:22:10.389Z,100983.56
2022-07-26T00:27:14.396Z,101062.94
2022-07-26T00:32:17.271Z,101056.19
2022-07-26T00:37:20.917Z,100991.13
2022-07-26T00:42:25.112Z,101046.09
2022-07-26T00:47:27.925Z,101050.59
2022-07-26T00:52:30.660Z,101048.59
2022-07-26T00:57:35.833Z,101042.00
2022-07-26T01:02:38.644Z,100991.81
2022-07-26T01:07:41.775Z,100966.03
2022-07-26T01:12:46.023Z,101042.72
2022-07-26T01:17:48.922Z,101039.13
2022-07-26T01:22:53.018Z,100994.28
2022-07-26T01:28:05.328Z,101042.16
2022-07-26T01:33:07.993Z,101041.00
2022-07-26T01:38:12.124Z,101041.28
2022-07-26T01:43:14.797Z,101041.66
2022-07-26T01:48:17.827Z,101049.22
2022-07-26T01:53:24.616Z,100986.03
2022-07-26T01:58:27.536Z,100985.69
2022-07-26T02:03:30.425Z,100997.50
2022-07-26T02:08:34.423Z,100967.09
2022-07-26T02:13:39.511Z,101011.47
2022-07-26T02:18:42.922Z,101046.16
2022-07-26T02:23:46.937Z,101046.00
2022-07-26T02:28:49.661Z,101050.19
2022-07-26T02:33:52.268Z,101055.53
2022-07-26T02:38:56.284Z,101056.00
2022-07-26T02:43:59.164Z,101053.66
2022-07-26T02:49:02.085Z,101063.47
2022-07-26T02:54:06.769Z,101056.56
2022-07-26T02:59:09.629Z,101050.00
2022-07-26T03:04:12.320Z,101040.53
2022-07-26T03:09:16.417Z,100967.44
2022-07-26T03:14:19.071Z,101065.88
2022-07-26T03:19:21.735Z,101075.19
2022-07-26T03:24:25.735Z,101088.66
2022-07-26T03:29:28.417Z,101014.66
2022-07-26T03:34:31.073Z,101043.78
2022-07-26T03:39:35.117Z,101101.16
2022-07-26T03:44:37.990Z,101066.06
2022-07-26T03:49:40.625Z,101110.13
2022-07-26T03:54:44.746Z,101083.47
2022-07-26T03:59:47.378Z,101071.97
2022-07-26T04:04:50.063Z,101037.81
2022-07-26T04:09:54.090Z,101111.63
2022-07-26T04:14:57.417Z,101070.03
2022-07-26T04:20:00.093Z,101011.09
2022-07-26T04:25:05.947Z,101116.31
2022-07-26T04:30:14.821Z,101136.97
2022-07-26T04:35:18.316Z,101131.06
2022-07-26T04:40:23.995Z,101139.31
2022-07-26T04:45:26.804Z,101141.28
2022-07-26T04:50:29.652Z,101117.03
2022-07-26T04:55:33.865Z,101123.31
2022-07-26T05:00:56.518Z,101136.81
2022-07-26T05:05:59.629Z,101142.72
2022-07-26T05:11:04.112Z,101112.75
2022-07-26T05:16:11.711Z,101143.19
2022-07-26T05:21:14.924Z,101122.09
2022-07-26T05:26:18.878Z,101094.78
2022-07-26T05:31:21.613Z,101151.16
2022-07-26T05:36:24.488Z,101068.59
2022-07-26T05:41:28.463Z,101145.94
2022-07-26T05:46:31.437Z,101136.03
2022-07-26T05:51:34.705Z,101147.19
2022-07-26T05:56:39.667Z,101159.75
2022-07-26T06:01:42.298Z,101149.06
2022-07-26T06:06:44.953Z,101162.06
2022-07-26T06:11:49.786Z,101115.03
2022-07-26T06:16:52.495Z,101155.22
2022-07-26T06:21:57.302Z,101130.09
2022-07-26T06:27:05.740Z,101177.75
2022-07-26T06:32:09.888Z,101178.47
2022-07-26T06:37:12.891Z,101176.53
2022-07-26T06:42:16.916Z,101170.78
2022-07-26T06:47:19.960Z,101120.72
2022-07-26T06:52:23.085Z,101194.44
2022-07-26T06:57:27.195Z,101198.03
2022-07-26T07:02:29.900Z,101137.47
2022-07-26T07:07:32.653Z,101212.72
2022-07-26T07:12:38.201Z,101211.50
2022-07-26T07:17:41.501Z,101128.41
2022-07-26T07:22:44.983Z,101198.91
2022-07-26T07:27:49.714Z,101207.69
2022-07-26T07:32:52.493Z,101148.84
2022-07-26T07:37:55.278Z,101217.91
2022-07-26T07:42:59.435Z,101215.72
2022-07-26T07:48:02.258Z,101228.88
2022-07-26T07:53:05.540Z,101227.56
2022-07-26T07:58:09.839Z,101196.41
2022-07-26T08:03:12.507Z,101232.50
2022-07-26T08:08:22.829Z,101232.72
2022-07-26T08:13:26.987Z,101236.72
2022-07-26T08:18:29.663Z,101234.00
2022-07-26T08:23:34.008Z,101230.31
2022-07-26T08:28:47.808Z,101187.72
2022-07-26T08:33:52.722Z,101159.44
2022-07-26T08:38:55.499Z,101243.34
2022-07-26T08:44:07.974Z,101243.88
2022-07-26T08:49:12.972Z,101253.50
2022-07-26T08:54:16.688Z,101256.19
2022-07-26T08:59:23.535Z,101187.22
2022-07-26T09:04:32.643Z,101258.34
2022-07-26T09:09:39.473Z,101252.03
2022-07-26T09:14:46.521Z,101250.25
2022-07-26T09:20:06.747Z,101256.13
2022-07-26T09:25:25.541Z,101253.78
2022-07-26T09:30:31.035Z,101262.72
2022-07-26T09:35:49.996Z,101266.25
2022-07-26T09:40:55.389Z,101265.25
2022-07-26T09:46:07.114Z,101260.88
2022-07-26T09:51:10.987Z,101272.38
2022-07-26T09:56:15.275Z,101321.91
2022-07-26T10:01:19.345Z,101304.78
2022-07-26T10:06:26.067Z,101346.44
2022-07-26T10:11:40.038Z,101349.47
2022-07-26T10:16:44.181Z,101337.88
2022-07-26T10:21:46.821Z,101353.88
2022-07-26T10:26:52.377Z,101353.47
2022-07-26T10:32:20.031Z,101312.53
2022-07-26T10:37:28.020Z,101356.44
2022-07-26T10:42:44.052Z,101385.81
2022-07-26T10:48:13.796Z,101369.91
2022-07-26T10:53:23.381Z,101378.88
2022-07-26T10:58:42.452Z,101389.97
2022-07-26T11:03:46.489Z,101388.91
2022-07-26T11:08:49.718Z,101391.91
2022-07-26T11:13:52.430Z,101352.06
2022-07-26T11:18:56.664Z,101377.97
2022-07-26T11:24:03.650Z,101361.13
2022-07-26T11:29:06.950Z,101355.81
2022-07-26T11:34:19.093Z,101392.75
2022-07-26T11:39:23.432Z,101390.44
2022-07-26T11:44:26.842Z,101347.66
2022-07-26T11:50:01.180Z,101388.75
2022-07-26T11:54:56.630Z,101386.13
2022-07-26T12:00:00.296Z,101384.47
2022-07-26T12:05:23.791Z,101388.69
2022-07-26T12:10:27.035Z,101398.84
2022-07-26T12:15:44.613Z,101400.03
2022-07-26T12:21:04.513Z,101369.91
2022-07-26T12:26:20.564Z,101398.56
2022-07-26T12:31:27.639Z,101399.09
2022-07-26T12:36:34.777Z,101366.59
2022-07-26T12:41:39.174Z,101357.66
2022-07-26T12:46:44.711Z,101396.78
2022-07-26T12:51:48.871Z,101371.97
2022-07-26T12:56:51.854Z,101395.44
2022-07-26T13:01:54.610Z,101400.56
2022-07-26T13:06:58.837Z,101388.53
2022-07-26T13:12:02.779Z,101335.88
2022-07-26T13:17:07.055Z,101375.03
2022-07-26T13:22:11.841Z,101388.72
2022-07-26T13:27:15.240Z,101397.97
2022-07-26T13:32:18.800Z,101399.84
2022-07-26T13:37:22.980Z,101364.56
2022-07-26T13:42:29.081Z,101384.31
2022-07-26T13:47:31.922Z,101398.06
2022-07-26T13:52:36.006Z,101393.09
2022-07-26T13:57:55.587Z,101398.72
2022-07-26T14:03:00.782Z,101303.81
2022-07-26T14:08:06.934Z,101405.09
2022-07-26T14:13:13.475Z,101431.25
2022-07-26T14:18:17.007Z,101434.97
2022-07-26T14:23:21.141Z,101437.06
2022-07-26T14:28:24.063Z,101440.41
2022-07-26T14:33:26.724Z,101399.53
2022-07-26T14:38:31.519Z,101441.97
2022-07-26T14:43:38.495Z,101397.19
2022-07-26T14:48:54.932Z,101391.59
2022-07-26T14:53:59.543Z,101452.81
2022-07-26T14:59:02.218Z,101453.31
2022-07-26T15:04:06.105Z,101456.72
2022-07-26T15:09:10.149Z,101461.00
2022-07-26T15:14:13.497Z,101465.94
2022-07-26T15:19:16.452Z,101462.19
2022-07-26T15:24:20.578Z,101462.75
2022-07-26T15:29:26.041Z,101465.47
2022-07-26T15:34:28.707Z,101469.94
2022-07-26T15:39:33.301Z,101466.94
2022-07-26T15:44:41.886Z,101469.69
2022-07-26T15:49:46.706Z,101384.06
2022-07-26T15:54:52.666Z,101464.66
2022-07-26T15:59:55.634Z,101476.81
2022-07-26T16:04:58.316Z,101449.59
2022-07-26T16:10:02.793Z,101461.41
2022-07-26T16:15:06.771Z,101460.75
2022-07-26T16:20:10.466Z,101449.75
2022-07-26T16:25:16.047Z,101469.34
2022-07-26T16:30:18.991Z,101469.13
2022-07-26T16:35:21.855Z,101470.63
2022-07-26T16:40:28.850Z,101457.84
2022-07-26T16:45:31.457Z,101459.81
2022-07-26T16:50:35.715Z,101445.81
2022-07-26T16:55:42.438Z,101467.22
2022-07-26T17:00:45.940Z,101447.06
2022-07-26T17:05:49.773Z,101461.88
2022-07-26T17:10:53.927Z,101437.72
2022-07-26T17:15:57.932Z,101462.78
2022-07-26T17:21:02.993Z,101464.00
2022-07-26T17:26:07.728Z,101445.66
2022-07-26T17:31:10.779Z,101479.25
2022-07-26T17:36:24.304Z,101491.88
2022-07-26T17:41:32.814Z,101485.91
2022-07-26T17:46:36.522Z,101453.56
2022-07-26T17:51:39.898Z,101480.13
2022-07-26T17:56:44.581Z,101460.69
2022-07-26T18:01:50.723Z,101476.78
2022-07-26T18:06:58.288Z,101469.25
2022-07-26T18:12:02.436Z,101472.25
2022-07-26T18:17:05.943Z,101484.81
2022-07-26T18:22:08.676Z,101489.72
2022-07-26T18:27:12.960Z,101488.13
2022-07-26T18:32:16.247Z,101476.81
2022-07-26T18:37:19.190Z,101487.97
2022-07-26T18:42:23.359Z,101485.16
2022-07-26T18:47:26.113Z,101455.88
2022-07-26T18:52:32.414Z,101486.13
2022-07-26T18:57:39.012Z,101421.94
2022-07-26T19:02:42.148Z,101494.50
2022-07-26T19:07:45.277Z,101490.09
2022-07-26T19:12:49.569Z,101499.03
2022-07-26T19:17:52.306Z,101486.31
2022-07-26T19:22:54.967Z,101514.59
2022-07-26T19:27:59.077Z,101500.16
2022-07-26T19:33:02.218Z,101526.91
2022-07-26T19:38:05.221Z,101529.72
2022-07-26T19:43:09.397Z,101528.03
2022-07-26T19:48:12.075Z,101495.75
2022-07-26T19:53:14.840Z,101548.47
2022-07-26T19:58:21.363Z,101527.09
2022-07-26T20:03:29.676Z,101453.53
2022-07-26T20:08:32.853Z,101558.34
2022-07-26T20:13:37.053Z,101555.41
2022-07-26T20:18:39.734Z,101554.66
2022-07-26T20:23:42.414Z,101569.69
2022-07-26T20:28:46.444Z,101581.00
2022-07-26T20:33:51.911Z,101549.84
2022-07-26T20:38:54.767Z,101585.59
2022-07-26T20:43:58.874Z,101560.41
2022-07-26T20:49:01.722Z,101596.66
2022-07-26T20:54:05.131Z,101590.06
2022-07-26T20:59:09.997Z,101595.59
2022-07-26T21:04:13.582Z,101602.88
2022-07-26T21:09:16.558Z,101555.84
2022-07-26T21:14:21.037Z,101624.75
2022-07-26T21:19:23.697Z,101623.38
2022-07-26T21:24:26.418Z,101607.59
2022-07-26T21:29:30.601Z,101621.59
2022-07-26T21:34:34.212Z,101637.72
2022-07-26T21:39:37.029Z,101573.75
2022-07-26T21:44:41.033Z,101636.75
2022-07-26T21:49:46.093Z,101642.75
2022-07-26T21:54:48.922Z,101649.44
2022-07-26T21:59:53.132Z,101653.16
2022-07-26T22:04:55.820Z,101652.38
2022-07-26T22:09:58.469Z,101646.22
2022-07-26T22:15:02.558Z,101649.66
2022-07-26T22:20:07.018Z,101653.97
2022-07-26T22:25:13.236Z,101655.94
2022-07-26T22:30:18.166Z,101646.63
2022-07-26T22:35:21.109Z,101665.50
2022-07-26T22:40:24.578Z,101661.41
2022-07-26T22:45:30.020Z,101644.00
2022-07-26T22:50:33.744Z,101657.47
2022-07-26T22:55:36.428Z,101656.88
2022-07-26T23:00:40.882Z,101652.63
2022-07-26T23:05:46.370Z,101637.41
2022-07-26T23:10:50.100Z,101627.31
2022-07-26T23:16:00.081Z,101627.66
2022-07-26T23:21:04.733Z,101659.16
2022-07-26T23:26:07.401Z,101626.34
2022-07-26T23:31:13.860Z,101656.72
2022-07-26T23:36:16.648Z,101656.88
2022-07-26T23:41:20.000Z,101655.03
2022-07-26T23:46:24.867Z,101629.44
2022-07-26T23:51:28.159Z,101595.31
2022-07-26T23:56:30.919Z,101634.50
